This is the latest recevied weather packets stored in our database for station/object W2SBL-1. If no packets are shown the sender has not sent any weather packets the latest 10 day(s).
| Time | Temp. | Humidity | Pressure | Rain* | Wind** | Luminosity | Snow |
|---|---|---|---|---|---|---|---|
| 1777299615 | 10.56° C | 46% | 1009.4 hPa | - | - | - | - |
| 1777298715 | 20° C | 45% | 1023.6 hPa | - | - | - | - |
| 1777297815 | 18.89° C | 45% | 1023.3 hPa | - | - | - | - |
| 1777296914 | 18.33° C | 45% | 1023.1 hPa | - | - | - | - |
| 1777296014 | 18.33° C | 44% | 1023 hPa | - | - | - | - |
| 1777295114 | 17.22° C | 45% | 1022.9 hPa | - | - | - | - |
| 1777294214 | 16.11° C | 45% | 1022.9 hPa | - | - | - | - |
| 1777293314 | 15° C | 47% | 1022.9 hPa | - | - | - | - |
| 1777292414 | 15° C | 45% | 1022.9 hPa | - | - | - | - |
| 1777291514 | 13.33° C | 47% | 1022.6 hPa | - | - | - | - |
| 1777290614 | 12.22° C | 48% | 1022.6 hPa | - | - | - | - |
| 1777289714 | 11.11° C | 48% | 1022.7 hPa | - | - | - | - |
| 1777288814 | 9.44° C | 50% | 1022.5 hPa | - | - | - | - |
| 1777287914 | 8.33° C | 52% | 1022.4 hPa | - | - | - | - |
| 1777287014 | 7.22° C | 52% | 1022.4 hPa | - | - | - | - |
| 1777286114 | 7.22° C | 53% | 1022.2 hPa | - | - | - | - |
| 1777285214 | 6.67° C | 53% | 1022.2 hPa | - | - | - | - |
| 1777284313 | 6.67° C | 53% | 1022.3 hPa | - | - | - | - |
| 1777283413 | 6.67° C | 53% | 1022.3 hPa | - | - | - | - |
| 1777282513 | 7.22° C | 53% | 1022.2 hPa | - | - | - | - |
| 1777281613 | 7.22° C | 52% | 1022.2 hPa | - | - | - | - |
| 1777280713 | 7.22° C | 52% | 1022.1 hPa | - | - | - | - |
| 1777279813 | 7.22° C | 52% | 1022.2 hPa | - | - | - | - |
| 1777278913 | -7.78° C | 52% | 997.2 hPa | - | - | - | - |
| 1777278013 | -12.78° C | 52% | 989.5 hPa | - | - | - | - |
* Rain since midnight (hover to see other rain measurements)
** Current wind speed in m/s (hover to see current wind gust speed)